sensor_id;sensor_type;location;lat;lon;timestamp;pressure;altitude;pressure_sealevel;temperature;humidity
12759;BME280;20944;47.048;15.390;2022-12-07T00:01:30;97435.28;;;2.42;100.00
12759;BME280;20944;47.048;15.390;2022-12-07T00:04:00;97418.88;;;2.30;100.00
12759;BME280;20944;47.048;15.390;2022-12-07T00:06:33;97418.03;;;2.38;100.00
12759;BME280;20944;47.048;15.390;2022-12-07T00:09:02;97417.19;;;2.41;100.00
12759;BME280;20944;47.048;15.390;2022-12-07T00:11:30;97426.66;;;2.51;100.00
12759;BME280;20944;47.048;15.390;2022-12-07T00:14:01;97421.47;;;2.43;100.00
12759;BME280;20944;47.048;15.390;2022-12-07T00:16:31;97420.63;;;2.37;100.00
12759;BME280;20944;47.048;15.390;2022-12-07T00:19:00;97418.03;;;2.37;100.00
12759;BME280;20944;47.048;15.390;2022-12-07T00:21:30;97424.94;;;2.33;100.00
12759;BME280;20944;47.048;15.390;2022-12-07T00:24:01;97419.75;;;2.38;100.00
12759;BME280;20944;47.048;15.390;2022-12-07T00:26:31;97415.44;;;2.35;100.00
12759;BME280;20944;47.048;15.390;2022-12-07T00:29:02;97414.56;;;2.32;100.00
12759;BME280;20944;47.048;15.390;2022-12-07T00:31:33;97421.50;;;2.39;100.00
12759;BME280;20944;47.048;15.390;2022-12-07T00:34:02;97341.28;;;1.87;100.00
12759;BME280;20944;47.048;15.390;2022-12-07T00:36:30;97399.94;;;2.20;100.00
12759;BME280;20944;47.048;15.390;2022-12-07T00:39:00;97420.59;;;2.32;100.00
12759;BME280;20944;47.048;15.390;2022-12-07T00:41:29;97345.63;;;1.89;100.00
12759;BME280;20944;47.048;15.390;2022-12-07T00:43:58;97415.44;;;2.31;100.00
12759;BME280;20944;47.048;15.390;2022-12-07T00:46:26;97421.47;;;2.22;100.00
12759;BME280;20944;47.048;15.390;2022-12-07T00:48:56;97401.63;;;2.04;100.00
12759;BME280;20944;47.048;15.390;2022-12-07T00:51:25;97421.47;;;2.27;100.00
12759;BME280;20944;47.048;15.390;2022-12-07T00:53:54;97383.50;;;1.92;100.00
12759;BME280;20944;47.048;15.390;2022-12-07T00:56:26;97408.53;;;2.25;100.00
12759;BME280;20944;47.048;15.390;2022-12-07T00:58:56;97420.59;;;2.17;100.00
12759;BME280;20944;47.048;15.390;2022-12-07T01:01:27;97420.59;;;2.14;100.00
12759;BME280;20944;47.048;15.390;2022-12-07T01:03:56;97421.44;;;2.13;100.00
12759;BME280;20944;47.048;15.390;2022-12-07T01:06:25;97421.44;;;2.11;100.00
12759;BME280;20944;47.048;15.390;2022-12-07T01:08:54;97379.19;;;1.77;100.00
12759;BME280;20944;47.048;15.390;2022-12-07T01:11:25;97301.63;;;1.39;100.00
12759;BME280;20944;47.048;15.390;2022-12-07T01:13:56;97420.59;;;2.20;100.00
12759;BME280;20944;47.048;15.390;2022-12-07T01:16:26;97423.19;;;2.22;100.00
12759;BME280;20944;47.048;15.390;2022-12-07T01:18:55;97404.22;;;2.16;100.00
12759;BME280;20944;47.048;15.390;2022-12-07T01:21:26;97425.72;;;2.06;100.00
12759;BME280;20944;47.048;15.390;2022-12-07T01:23:54;97408.47;;;1.93;100.00
12759;BME280;20944;47.048;15.390;2022-12-07T01:26:26;97430.91;;;2.05;100.00
12759;BME280;20944;47.048;15.390;2022-12-07T01:28:54;97406.75;;;1.91;100.00
12759;BME280;20944;47.048;15.390;2022-12-07T01:31:26;97421.41;;;2.07;100.00
12759;BME280;20944;47.048;15.390;2022-12-07T01:33:56;97417.97;;;2.05;100.00
12759;BME280;20944;47.048;15.390;2022-12-07T01:36:26;97410.22;;;2.06;100.00
12759;BME280;20944;47.048;15.390;2022-12-07T01:38:56;97338.66;;;1.53;100.00
12759;BME280;20944;47.048;15.390;2022-12-07T01:41:28;97411.94;;;1.95;100.00
12759;BME280;20944;47.048;15.390;2022-12-07T01:44:09;97327.38;;;1.27;100.00
12759;BME280;20944;47.048;15.390;2022-12-07T01:46:37;97411.03;;;1.81;100.00
12759;BME280;20944;47.048;15.390;2022-12-07T01:49:09;97411.03;;;1.79;100.00
12759;BME280;20944;47.048;15.390;2022-12-07T01:51:39;97353.25;;;1.47;100.00
12759;BME280;20944;47.048;15.390;2022-12-07T01:54:10;97404.13;;;1.80;100.00
12759;BME280;20944;47.048;15.390;2022-12-07T01:56:43;97403.28;;;1.78;100.00
12759;BME280;20944;47.048;15.390;2022-12-07T01:59:14;97411.00;;;1.70;100.00
12759;BME280;20944;47.048;15.390;2022-12-07T02:01:44;97320.47;;;1.23;100.00
12759;BME280;20944;47.048;15.390;2022-12-07T02:04:12;97378.25;;;1.63;100.00
12759;BME280;20944;47.048;15.390;2022-12-07T02:06:41;97398.97;;;1.78;100.00
12759;BME280;20944;47.048;15.390;2022-12-07T02:09:11;97392.06;;;1.73;100.00
12759;BME280;20944;47.048;15.390;2022-12-07T02:11:41;97389.47;;;1.73;100.00
12759;BME280;20944;47.048;15.390;2022-12-07T02:14:10;97305.00;;;1.23;100.00
12759;BME280;20944;47.048;15.390;2022-12-07T02:16:46;97364.50;;;1.58;100.00
12759;BME280;20944;47.048;15.390;2022-12-07T02:19:47;97342.03;;;1.43;100.00
12759;BME280;20944;47.048;15.390;2022-12-07T02:22:32;97390.31;;;1.69;100.00
12759;BME280;20944;47.048;15.390;2022-12-07T02:25:09;97375.69;;;1.65;100.00
12759;BME280;20944;47.048;15.390;2022-12-07T02:27:46;97380.84;;;1.58;100.00
12759;BME280;20944;47.048;15.390;2022-12-07T02:30:19;97383.44;;;1.66;100.00
12759;BME280;20944;47.048;15.390;2022-12-07T02:32:53;97345.53;;;1.56;100.00
12759;BME280;20944;47.048;15.390;2022-12-07T02:35:28;97128.38;;;0.17;100.00
12759;BME280;20944;47.048;15.390;2022-12-07T02:38:02;97372.22;;;1.59;100.00
12759;BME280;20944;47.048;15.390;2022-12-07T02:40:36;97355.81;;;1.42;100.00
12759;BME280;20944;47.048;15.390;2022-12-07T02:43:09;97357.53;;;1.40;100.00
12759;BME280;20944;47.048;15.390;2022-12-07T02:45:43;97381.66;;;1.47;100.00
12759;BME280;20944;47.048;15.390;2022-12-07T02:48:16;97370.38;;;1.29;100.00
12759;BME280;20944;47.048;15.390;2022-12-07T02:50:47;97390.16;;;1.26;100.00
12759;BME280;20944;47.048;15.390;2022-12-07T02:53:32;97375.53;;;1.31;100.00
12759;BME280;20944;47.048;15.390;2022-12-07T02:56:07;97379.00;;;1.38;100.00
12759;BME280;20944;47.048;15.390;2022-12-07T02:58:48;97380.75;;;1.32;100.00
12759;BME280;20944;47.048;15.390;2022-12-07T03:01:28;97379.84;;;1.26;100.00
12759;BME280;20944;47.048;15.390;2022-12-07T03:04:07;97380.69;;;1.22;100.00
12759;BME280;20944;47.048;15.390;2022-12-07T03:06:43;97380.72;;;1.26;100.00
12759;BME280;20944;47.048;15.390;2022-12-07T03:09:20;97375.53;;;1.23;100.00
12759;BME280;20944;47.048;15.390;2022-12-07T03:12:00;97377.28;;;1.27;100.00
12759;BME280;20944;47.048;15.390;2022-12-07T03:14:30;97377.25;;;1.20;100.00
12759;BME280;20944;47.048;15.390;2022-12-07T03:17:05;97382.44;;;1.26;100.00
12759;BME280;20944;47.048;15.390;2022-12-07T03:19:36;97328.94;;;0.90;100.00
12759;BME280;20944;47.048;15.390;2022-12-07T03:22:07;97359.94;;;1.05;100.00
12759;BME280;20944;47.048;15.390;2022-12-07T03:24:41;97371.22;;;1.24;100.00
12759;BME280;20944;47.048;15.390;2022-12-07T03:27:14;97341.09;;;1.14;100.00
12759;BME280;20944;47.048;15.390;2022-12-07T03:29:46;97340.22;;;1.18;100.00
12759;BME280;20944;47.048;15.390;2022-12-07T03:32:24;97356.63;;;1.30;100.00
12759;BME280;20944;47.048;15.390;2022-12-07T03:34:57;97365.25;;;1.34;100.00
12759;BME280;20944;47.048;15.390;2022-12-07T03:37:33;97320.44;;;1.15;100.00
12759;BME280;20944;47.048;15.390;2022-12-07T03:40:08;97173.00;;;0.07;100.00
12759;BME280;20944;47.048;15.390;2022-12-07T03:42:41;97335.91;;;1.07;100.00
12759;BME280;20944;47.048;15.390;2022-12-07T03:45:10;97349.69;;;1.14;100.00
12759;BME280;20944;47.048;15.390;2022-12-07T03:47:46;97352.22;;;1.06;100.00
12759;BME280;20944;47.048;15.390;2022-12-07T03:50:25;97303.66;;;0.32;100.00
12759;BME280;20944;47.048;15.390;2022-12-07T03:52:58;97353.75;;;0.74;100.00
12759;BME280;20944;47.048;15.390;2022-12-07T03:55:32;97358.09;;;0.78;100.00
12759;BME280;20944;47.048;15.390;2022-12-07T03:58:05;97358.13;;;0.87;100.00
12759;BME280;20944;47.048;15.390;2022-12-07T04:00:34;97203.88;;;0.04;100.00
12759;BME280;20944;47.048;15.390;2022-12-07T04:03:04;97265.06;;;0.38;100.00
12759;BME280;20944;47.048;15.390;2022-12-07T04:05:33;97359.06;;;0.95;100.00
12759;BME280;20944;47.048;15.390;2022-12-07T04:08:01;97347.84;;;0.89;100.00
12759;BME280;20944;47.048;15.390;2022-12-07T04:10:29;97364.22;;;0.97;100.00
12759;BME280;20944;47.048;15.390;2022-12-07T04:12:57;97346.94;;;0.87;100.00
12759;BME280;20944;47.048;15.390;2022-12-07T04:15:26;97328.91;;;0.85;100.00
12759;BME280;20944;47.048;15.390;2022-12-07T04:17:54;97364.25;;;1.04;100.00
12759;BME280;20944;47.048;15.390;2022-12-07T04:20:24;97365.97;;;1.05;100.00
12759;BME280;20944;47.048;15.390;2022-12-07T04:22:52;97329.69;;;0.75;100.00
12759;BME280;20944;47.048;15.390;2022-12-07T04:25:20;97345.22;;;0.84;100.00
12759;BME280;20944;47.048;15.390;2022-12-07T04:27:49;97358.19;;;0.98;100.00
12759;BME280;20944;47.048;15.390;2022-12-07T04:30:18;97364.28;;;1.07;100.00
12759;BME280;20944;47.048;15.390;2022-12-07T04:32:47;97367.63;;;0.90;100.00
12759;BME280;20944;47.048;15.390;2022-12-07T04:35:15;97363.28;;;0.84;100.00
12759;BME280;20944;47.048;15.390;2022-12-07T04:37:45;97367.59;;;0.87;100.00
12759;BME280;20944;47.048;15.390;2022-12-07T04:40:13;97362.47;;;0.90;100.00
12759;BME280;20944;47.048;15.390;2022-12-07T04:42:41;97359.88;;;0.90;100.00
12759;BME280;20944;47.048;15.390;2022-12-07T04:45:10;97307.22;;;0.56;100.00
12759;BME280;20944;47.048;15.390;2022-12-07T04:47:38;97364.22;;;0.98;100.00
12759;BME280;20944;47.048;15.390;2022-12-07T04:50:08;97350.41;;;0.93;100.00
12759;BME280;20944;47.048;15.390;2022-12-07T04:52:37;97353.84;;;0.89;100.00
12759;BME280;20944;47.048;15.390;2022-12-07T04:55:07;97360.66;;;0.81;100.00
12759;BME280;20944;47.048;15.390;2022-12-07T04:57:35;97352.94;;;0.78;100.00
12759;BME280;20944;47.048;15.390;2022-12-07T05:00:04;97351.25;;;0.85;100.00
12759;BME280;20944;47.048;15.390;2022-12-07T05:02:33;97356.31;;;0.71;100.00
12759;BME280;20944;47.048;15.390;2022-12-07T05:05:01;97352.03;;;0.70;100.00
12759;BME280;20944;47.048;15.390;2022-12-07T05:07:29;97350.31;;;0.75;100.00
12759;BME280;20944;47.048;15.390;2022-12-07T05:09:57;97246.78;;;0.02;100.00
12759;BME280;20944;47.048;15.390;2022-12-07T05:12:28;97344.19;;;0.56;100.00
12759;BME280;20944;47.048;15.390;2022-12-07T05:14:56;97341.56;;;0.47;100.00
12759;BME280;20944;47.048;15.390;2022-12-07T05:17:24;97328.66;;;0.45;100.00
12759;BME280;20944;47.048;15.390;2022-12-07T05:19:52;97293.22;;;0.17;100.00
12759;BME280;20944;47.048;15.390;2022-12-07T05:22:21;97354.53;;;0.59;100.00
12759;BME280;20944;47.048;15.390;2022-12-07T05:24:49;97358.88;;;0.68;100.00
12759;BME280;20944;47.048;15.390;2022-12-07T05:27:17;97352.84;;;0.67;100.00
12759;BME280;20944;47.048;15.390;2022-12-07T05:29:47;97295.94;;;0.35;100.00
12759;BME280;20944;47.048;15.390;2022-12-07T05:32:15;97360.63;;;0.70;100.00
12759;BME280;20944;47.048;15.390;2022-12-07T05:34:43;97277.00;;;0.25;100.00
12759;BME280;20944;47.048;15.390;2022-12-07T05:37:11;97364.91;;;0.74;100.00
12759;BME280;20944;47.048;15.390;2022-12-07T05:39:40;97320.09;;;0.49;100.00
12759;BME280;20944;47.048;15.390;2022-12-07T05:42:10;97364.91;;;0.71;100.00
12759;BME280;20944;47.048;15.390;2022-12-07T05:44:42;97341.75;;;0.76;100.00
12759;BME280;20944;47.048;15.390;2022-12-07T05:47:13;97316.75;;;0.69;100.00
12759;BME280;20944;47.048;15.390;2022-12-07T05:49:42;97357.19;;;0.74;100.00
12759;BME280;20944;47.048;15.390;2022-12-07T05:52:10;97343.28;;;0.48;100.00
12759;BME280;20944;47.048;15.390;2022-12-07T05:54:38;97341.50;;;0.44;100.00
12759;BME280;20944;47.048;15.390;2022-12-07T05:57:06;97369.13;;;0.62;100.00
12759;BME280;20944;47.048;15.390;2022-12-07T05:59:35;97360.59;;;0.69;100.00
12759;BME280;20944;47.048;15.390;2022-12-07T06:02:04;97025.44;;;-1.22;100.00
12759;BME280;20944;47.048;15.390;2022-12-07T06:04:36;97290.75;;;0.29;100.00
12759;BME280;20944;47.048;15.390;2022-12-07T06:07:04;97363.25;;;0.79;100.00
12759;BME280;20944;47.048;15.390;2022-12-07T06:09:34;97372.69;;;0.79;100.00
12759;BME280;20944;47.048;15.390;2022-12-07T06:12:03;97367.53;;;0.76;100.00
12759;BME280;20944;47.048;15.390;2022-12-07T06:14:49;97377.78;;;0.67;100.00
12759;BME280;20944;47.048;15.390;2022-12-07T06:17:17;97335.44;;;0.36;100.00
12759;BME280;20944;47.048;15.390;2022-12-07T06:19:47;97380.34;;;0.65;100.00
12759;BME280;20944;47.048;15.390;2022-12-07T06:22:15;97356.97;;;0.42;100.00
12759;BME280;20944;47.048;15.390;2022-12-07T06:24:44;97379.34;;;0.49;100.00
12759;BME280;20944;47.048;15.390;2022-12-07T06:27:12;97363.03;;;0.44;100.00
12759;BME280;20944;47.048;15.390;2022-12-07T06:29:40;97383.69;;;0.53;100.00
12759;BME280;20944;47.048;15.390;2022-12-07T06:32:08;97392.31;;;0.57;100.00
12759;BME280;20944;47.048;15.390;2022-12-07T06:34:37;97366.19;;;0.13;100.00
12759;BME280;20944;47.048;15.390;2022-12-07T06:37:07;97393.03;;;0.41;100.00
12759;BME280;20944;47.048;15.390;2022-12-07T06:39:35;97400.84;;;0.50;100.00
12759;BME280;20944;47.048;15.390;2022-12-07T06:42:04;97399.75;;;0.23;100.00
12759;BME280;20944;47.048;15.390;2022-12-07T06:44:32;97387.72;;;0.22;100.00
12759;BME280;20944;47.048;15.390;2022-12-07T06:47:00;97404.09;;;0.26;100.00
12759;BME280;20944;47.048;15.390;2022-12-07T06:49:48;97404.91;;;0.20;100.00
12759;BME280;20944;47.048;15.390;2022-12-07T06:52:18;97408.44;;;0.32;100.00
12759;BME280;20944;47.048;15.390;2022-12-07T06:54:46;97389.38;;;0.14;100.00
12759;BME280;20944;47.048;15.390;2022-12-07T06:57:14;97410.19;;;0.36;100.00
12759;BME280;20944;47.048;15.390;2022-12-07T06:59:42;97419.72;;;0.47;100.00
12759;BME280;20944;47.048;15.390;2022-12-07T07:02:11;97417.09;;;0.43;100.00
12759;BME280;20944;47.048;15.390;2022-12-07T07:04:40;97398.16;;;0.38;100.00
12759;BME280;20944;47.048;15.390;2022-12-07T07:07:08;97415.53;;;0.59;100.00
12759;BME280;20944;47.048;15.390;2022-12-07T07:09:38;97419.81;;;0.61;100.00
12759;BME280;20944;47.048;15.390;2022-12-07T07:12:06;97411.31;;;0.71;100.00
12759;BME280;20944;47.048;15.390;2022-12-07T07:14:34;97413.97;;;0.80;100.00
12759;BME280;20944;47.048;15.390;2022-12-07T07:17:03;97421.72;;;0.82;100.00
12759;BME280;20944;47.048;15.390;2022-12-07T07:19:31;97344.84;;;0.29;100.00
12759;BME280;20944;47.048;15.390;2022-12-07T07:21:59;97420.78;;;0.71;100.00
12759;BME280;20944;47.048;15.390;2022-12-07T07:24:27;97419.16;;;0.82;100.00
12759;BME280;20944;47.048;15.390;2022-12-07T07:26:57;97425.97;;;0.80;100.00
12759;BME280;20944;47.048;15.390;2022-12-07T07:29:25;97430.28;;;0.78;100.00
12759;BME280;20944;47.048;15.390;2022-12-07T07:31:53;97404.38;;;0.61;100.00
12759;BME280;20944;47.048;15.390;2022-12-07T07:34:22;97424.16;;;0.65;100.00
12759;BME280;20944;47.048;15.390;2022-12-07T07:36:50;97429.38;;;0.70;100.00
12759;BME280;20944;47.048;15.390;2022-12-07T07:39:18;97401.78;;;0.63;100.00
12759;BME280;20944;47.048;15.390;2022-12-07T07:41:46;97429.50;;;0.93;100.00
12759;BME280;20944;47.048;15.390;2022-12-07T07:44:16;97318.16;;;0.19;100.00
12759;BME280;20944;47.048;15.390;2022-12-07T07:46:44;97429.56;;;0.97;100.00
12759;BME280;20944;47.048;15.390;2022-12-07T07:49:12;97430.41;;;0.99;100.00
12759;BME280;20944;47.048;15.390;2022-12-07T07:51:41;97384.69;;;0.75;100.00
12759;BME280;20944;47.048;15.390;2022-12-07T07:54:09;97428.78;;;1.12;100.00
12759;BME280;20944;47.048;15.390;2022-12-07T07:56:37;97343.44;;;0.71;100.00
12759;BME280;20944;47.048;15.390;2022-12-07T07:59:05;97428.88;;;1.27;100.00
12759;BME280;20944;47.048;15.390;2022-12-07T08:01:35;97365.91;;;0.90;100.00
12759;BME280;20944;47.048;15.390;2022-12-07T08:04:03;97428.94;;;1.40;100.00
12759;BME280;20944;47.048;15.390;2022-12-07T08:06:31;97349.56;;;0.91;100.00
12759;BME280;20944;47.048;15.390;2022-12-07T08:09:00;97430.69;;;1.45;100.00
12759;BME280;20944;47.048;15.390;2022-12-07T08:11:28;97429.81;;;1.40;100.00
12759;BME280;20944;47.048;15.390;2022-12-07T08:13:56;97420.28;;;1.30;100.00
12759;BME280;20944;47.048;15.390;2022-12-07T08:16:24;97409.97;;;1.38;100.00
12759;BME280;20944;47.048;15.390;2022-12-07T08:18:54;97382.44;;;1.27;100.00
12759;BME280;20944;47.048;15.390;2022-12-07T08:21:22;97429.09;;;1.70;100.00
12759;BME280;20944;47.048;15.390;2022-12-07T08:23:51;97431.69;;;1.81;100.00
12759;BME280;20944;47.048;15.390;2022-12-07T08:26:19;97404.97;;;1.73;100.00
12759;BME280;20944;47.048;15.390;2022-12-07T08:28:47;97417.91;;;1.88;100.00
12759;BME280;20944;47.048;15.390;2022-12-07T08:31:16;97400.72;;;1.85;100.00
12759;BME280;20944;47.048;15.390;2022-12-07T08:33:46;97443.84;;;2.19;100.00
12759;BME280;20944;47.048;15.390;2022-12-07T08:36:16;97442.97;;;2.20;100.00
12759;BME280;20944;47.048;15.390;2022-12-07T08:38:45;97455.00;;;2.05;100.00
12759;BME280;20944;47.048;15.390;2022-12-07T08:41:33;97433.41;;;1.88;100.00
12759;BME280;20944;47.048;15.390;2022-12-07T08:44:01;97473.94;;;1.95;100.00
12759;BME280;20944;47.048;15.390;2022-12-07T08:46:32;97454.97;;;1.93;100.00
12759;BME280;20944;47.048;15.390;2022-12-07T08:49:06;97441.13;;;1.74;100.00
12759;BME280;20944;47.048;15.390;2022-12-07T08:51:38;97459.28;;;1.94;100.00
12759;BME280;20944;47.048;15.390;2022-12-07T08:54:08;97440.34;;;1.98;100.00
12759;BME280;20944;47.048;15.390;2022-12-07T08:56:37;97455.03;;;2.19;100.00
12759;BME280;20944;47.048;15.390;2022-12-07T08:59:05;97448.16;;;2.16;100.00
12759;BME280;20944;47.048;15.390;2022-12-07T09:01:34;97464.53;;;2.25;100.00
12759;BME280;20944;47.048;15.390;2022-12-07T09:04:02;97467.13;;;2.31;100.00
12759;BME280;20944;47.048;15.390;2022-12-07T09:06:31;97467.16;;;2.35;100.00
12759;BME280;20944;47.048;15.390;2022-12-07T09:09:01;97451.59;;;2.25;100.00
12759;BME280;20944;47.048;15.390;2022-12-07T09:11:30;97461.03;;;2.06;100.00
12759;BME280;20944;47.048;15.390;2022-12-07T09:13:58;97471.41;;;2.20;100.00
12759;BME280;20944;47.048;15.390;2022-12-07T09:16:26;97473.13;;;2.19;100.00
12759;BME280;20944;47.048;15.390;2022-12-07T09:18:55;97225.69;;;0.73;100.00
12759;BME280;20944;47.048;15.390;2022-12-07T09:21:23;97468.00;;;2.28;100.00
12759;BME280;20944;47.048;15.390;2022-12-07T09:23:51;97466.28;;;2.42;100.00
12759;BME280;20944;47.048;15.390;2022-12-07T09:26:21;97449.91;;;2.42;100.00
12759;BME280;20944;47.048;15.390;2022-12-07T09:28:49;97468.91;;;2.62;100.00
12759;BME280;20944;47.048;15.390;2022-12-07T09:31:18;97468.91;;;2.75;100.00
12759;BME280;20944;47.048;15.390;2022-12-07T09:33:53;97449.06;;;2.67;100.00
12759;BME280;20944;47.048;15.390;2022-12-07T09:36:22;97460.28;;;2.86;100.00
12759;BME280;20944;47.048;15.390;2022-12-07T09:38:50;97327.50;;;1.88;100.00
12759;BME280;20944;47.048;15.390;2022-12-07T09:41:20;97455.97;;;2.65;100.00
12759;BME280;20944;47.048;15.390;2022-12-07T09:43:50;97346.50;;;2.13;100.00
12759;BME280;20944;47.048;15.390;2022-12-07T09:46:20;97447.34;;;2.85;100.00
12759;BME280;20944;47.048;15.390;2022-12-07T09:48:49;97408.56;;;2.74;100.00
12759;BME280;20944;47.048;15.390;2022-12-07T09:51:19;97447.34;;;3.11;100.00
12759;BME280;20944;47.048;15.390;2022-12-07T09:53:51;97452.53;;;3.09;100.00
12759;BME280;20944;47.048;15.390;2022-12-07T09:56:22;97447.34;;;2.97;100.00
12759;BME280;20944;47.048;15.390;2022-12-07T09:58:58;97443.03;;;2.88;100.00
12759;BME280;20944;47.048;15.390;2022-12-07T10:01:29;97442.19;;;2.79;100.00
12759;BME280;20944;47.048;15.390;2022-12-07T10:04:09;97433.56;;;2.70;100.00
12759;BME280;20944;47.048;15.390;2022-12-07T10:06:41;97425.78;;;2.63;100.00
12759;BME280;20944;47.048;15.390;2022-12-07T10:09:11;97352.53;;;2.12;100.00
12759;BME280;20944;47.048;15.390;2022-12-07T10:12:01;97428.38;;;2.67;100.00
12759;BME280;20944;47.048;15.390;2022-12-07T10:14:32;97430.09;;;2.70;100.00
12759;BME280;20944;47.048;15.390;2022-12-07T10:17:34;97427.53;;;2.84;100.00
12759;BME280;20944;47.048;15.390;2022-12-07T10:20:13;97407.69;;;2.80;100.00
12759;BME280;20944;47.048;15.390;2022-12-07T10:22:54;97380.09;;;2.74;100.00
12759;BME280;20944;47.048;15.390;2022-12-07T10:25:26;97430.94;;;3.16;100.00
12759;BME280;20944;47.048;15.390;2022-12-07T10:28:02;97321.50;;;2.55;100.00
12759;BME280;20944;47.048;15.390;2022-12-07T10:30:31;97426.59;;;3.34;100.00
12759;BME280;20944;47.048;15.390;2022-12-07T10:33:00;97421.38;;;3.37;100.00
12759;BME280;20944;47.048;15.390;2022-12-07T10:35:29;97419.63;;;3.49;100.00
12759;BME280;20944;47.048;15.390;2022-12-07T10:37:59;97398.91;;;3.54;100.00
12759;BME280;20944;47.048;15.390;2022-12-07T10:40:31;97422.94;;;3.81;100.00
12759;BME280;20944;47.048;15.390;2022-12-07T10:43:03;97407.31;;;3.96;100.00
12759;BME280;20944;47.048;15.390;2022-12-07T10:45:32;97411.66;;;3.94;100.00
12759;BME280;20944;47.048;15.390;2022-12-07T10:48:12;97406.50;;;3.91;100.00
12759;BME280;20944;47.048;15.390;2022-12-07T10:50:54;97409.69;;;4.36;100.00
12759;BME280;20944;47.048;15.390;2022-12-07T10:53:45;97355.19;;;4.40;100.00
12759;BME280;20944;47.048;15.390;2022-12-07T10:56:29;97404.16;;;4.77;100.00
12759;BME280;20944;47.048;15.390;2022-12-07T10:59:20;97399.75;;;4.88;100.00
12759;BME280;20944;47.048;15.390;2022-12-07T11:01:57;97372.91;;;4.91;100.00
12759;BME280;20944;47.048;15.390;2022-12-07T11:04:37;97292.66;;;4.69;100.00
12759;BME280;20944;47.048;15.390;2022-12-07T11:07:13;97398.13;;;5.59;100.00
12759;BME280;20944;47.048;15.390;2022-12-07T11:10:01;97313.44;;;5.43;100.00
12759;BME280;20944;47.048;15.390;2022-12-07T11:12:47;97390.56;;;6.12;100.00
12759;BME280;20944;47.048;15.390;2022-12-07T11:15:25;97398.03;;;6.33;100.00
12759;BME280;20944;47.048;15.390;2022-12-07T11:18:03;97389.63;;;6.71;100.00
12759;BME280;20944;47.048;15.390;2022-12-07T11:20:42;97386.53;;;7.00;100.00
12759;BME280;20944;47.048;15.390;2022-12-07T11:23:18;97381.16;;;7.10;100.00
12759;BME280;20944;47.048;15.390;2022-12-07T11:25:53;97380.41;;;7.05;100.00
12759;BME280;20944;47.048;15.390;2022-12-07T11:28:35;97376.38;;;6.87;100.00
12759;BME280;20944;47.048;15.390;2022-12-07T11:31:13;97373.34;;;6.59;100.00
12759;BME280;20944;47.048;15.390;2022-12-07T11:33:54;97369.38;;;6.36;100.00
12759;BME280;20944;47.048;15.390;2022-12-07T11:36:37;97320.06;;;5.67;100.00
12759;BME280;20944;47.048;15.390;2022-12-07T11:39:19;97319.25;;;5.63;100.00
12759;BME280;20944;47.048;15.390;2022-12-07T11:41:52;97366.06;;;5.59;100.00
12759;BME280;20944;47.048;15.390;2022-12-07T11:44:30;97364.59;;;5.41;100.00
12759;BME280;20944;47.048;15.390;2022-12-07T11:47:09;97338.78;;;5.24;100.00
12759;BME280;20944;47.048;15.390;2022-12-07T11:49:43;97340.56;;;5.21;100.00
12759;BME280;20944;47.048;15.390;2022-12-07T11:52:18;97353.34;;;5.37;100.00
12759;BME280;20944;47.048;15.390;2022-12-07T11:54:50;97337.88;;;5.28;100.00
12759;BME280;20944;47.048;15.390;2022-12-07T11:57:24;97349.00;;;5.39;100.00
12759;BME280;20944;47.048;15.390;2022-12-07T12:00:00;97330.03;;;5.31;100.00
12759;BME280;20944;47.048;15.390;2022-12-07T12:02:36;97352.38;;;5.48;100.00
12759;BME280;20944;47.048;15.390;2022-12-07T12:05:15;97328.13;;;5.46;100.00
12759;BME280;20944;47.048;15.390;2022-12-07T12:07:48;97348.66;;;5.67;100.00
12759;BME280;20944;47.048;15.390;2022-12-07T12:10:45;97327.41;;;6.04;100.00
12759;BME280;20944;47.048;15.390;2022-12-07T12:17:02;97283.06;;;6.62;100.00
12759;BME280;20944;47.048;15.390;2022-12-07T12:19:40;97332.94;;;7.34;100.00
12759;BME280;20944;47.048;15.390;2022-12-07T12:22:14;97334.19;;;7.57;100.00
12759;BME280;20944;47.048;15.390;2022-12-07T12:24:47;97332.66;;;7.89;100.00
12759;BME280;20944;47.048;15.390;2022-12-07T12:27:23;97321.31;;;7.90;100.00
12759;BME280;20944;47.048;15.390;2022-12-07T12:29:55;97328.69;;;7.71;100.00
12759;BME280;20944;47.048;15.390;2022-12-07T12:32:32;97328.75;;;7.68;100.00
12759;BME280;20944;47.048;15.390;2022-12-07T12:35:28;97314.47;;;7.44;100.00
12759;BME280;20944;47.048;15.390;2022-12-07T12:41:03;97244.53;;;6.81;100.00
12759;BME280;20944;47.048;15.390;2022-12-07T12:43:49;97318.59;;;7.56;100.00
12759;BME280;20944;47.048;15.390;2022-12-07T12:46:50;97319.75;;;7.83;100.00
12759;BME280;20944;47.048;15.390;2022-12-07T12:49:37;97324.19;;;8.18;100.00
12759;BME280;20944;47.048;15.390;2022-12-07T12:55:29;97302.84;;;8.74;100.00
12759;BME280;20944;47.048;15.390;2022-12-07T13:01:44;97317.91;;;8.25;100.00
12759;BME280;20944;47.048;15.390;2022-12-07T13:04:52;97316.50;;;7.72;100.00
12759;BME280;20944;47.048;15.390;2022-12-07T13:07:55;97312.38;;;7.20;100.00
12759;BME280;20944;47.048;15.390;2022-12-07T13:10:41;97315.88;;;6.71;100.00
12759;BME280;20944;47.048;15.390;2022-12-07T13:13:28;97305.41;;;6.23;100.00
12759;BME280;20944;47.048;15.390;2022-12-07T13:18:58;97306.16;;;5.73;100.00
12759;BME280;20944;47.048;15.390;2022-12-07T13:21:42;97312.31;;;5.64;100.00
12759;BME280;20944;47.048;15.390;2022-12-07T13:24:12;97318.53;;;5.52;100.00
12759;BME280;20944;47.048;15.390;2022-12-07T13:26:43;97322.06;;;5.48;100.00
12759;BME280;20944;47.048;15.390;2022-12-07T13:29:13;97299.72;;;5.32;100.00
12759;BME280;20944;47.048;15.390;2022-12-07T13:31:44;97315.19;;;5.43;100.00
12759;BME280;20944;47.048;15.390;2022-12-07T13:34:29;97316.06;;;5.40;100.00